# Tabular Observed and Forecast Hydrograph Information
#
# Location: Klamath River - Keno (KEOO3)
#
# File Generation Time: 09/04/2026 at 07:24 AM PDT
# Data Interval: 1 Hour
#
# Most Recent Date & Time of Maximum Observed: 08/30/2026 at 10:00 AM PDT
# Maximum Observed Stage: 5.83 Feet
# Maximum Observed Flow: 1340 cfs
#
# Earliest Date & Time of Maximum Forecast: 09/06/2026 at 11:00 PM PDT
# Maximum Forecast Stage: 4.73 Feet
# Maximum Forecast Flow: 752 cfs
#
# OBSERVED
#
# Date & Time (Local) Stage (Feet) Flow (cfs) Trend Observed Status
# ---------------------------------------------------------------------------------
08/30/2026 07 AM PDT 5.83 1340 Not Applicable
08/30/2026 08 AM PDT 5.81 1328 - Not Applicable
08/30/2026 09 AM PDT 5.82 1334 + Not Applicable
08/30/2026 10 AM PDT 5.83 1340 + Not Applicable
08/30/2026 11 AM PDT 5.82 1334 - Not Applicable
08/30/2026 12 PM PDT 5.82 1334 0 Not Applicable
08/30/2026 01 PM PDT 5.75 1290 - Not Applicable
08/30/2026 02 PM PDT 5.74 1284 - Not Applicable
08/30/2026 03 PM PDT 5.68 1247 - Not Applicable
08/30/2026 04 PM PDT 5.66 1235 - Not Applicable
08/30/2026 05 PM PDT 5.57 1181 - Not Applicable
08/30/2026 06 PM PDT 5.59 1193 + Not Applicable
08/30/2026 07 PM PDT 5.57 1181 - Not Applicable
08/30/2026 08 PM PDT 5.58 1187 + Not Applicable
08/30/2026 09 PM PDT 5.58 1187 0 Not Applicable
08/30/2026 10 PM PDT 5.56 1175 - Not Applicable
08/30/2026 11 PM PDT 5.57 1181 + Not Applicable
08/31/2026 12 AM PDT 5.57 1181 0 Not Applicable
08/31/2026 01 AM PDT 5.56 1175 - Not Applicable
08/31/2026 02 AM PDT 5.57 1181 + Not Applicable
08/31/2026 03 AM PDT 5.56 1175 - Not Applicable
08/31/2026 04 AM PDT 5.56 1175 0 Not Applicable
08/31/2026 05 AM PDT 5.57 1181 + Not Applicable
08/31/2026 06 AM PDT 5.56 1175 - Not Applicable
08/31/2026 07 AM PDT 5.56 1175 0 Not Applicable
08/31/2026 08 AM PDT 5.54 1163 - Not Applicable
08/31/2026 09 AM PDT 5.52 1152 - Not Applicable
08/31/2026 10 AM PDT 5.53 1158 + Not Applicable
08/31/2026 11 AM PDT 5.53 1158 0 Not Applicable
08/31/2026 12 PM PDT 5.57 1181 + Not Applicable
08/31/2026 01 PM PDT 5.49 1134 - Not Applicable
08/31/2026 02 PM PDT 5.50 1140 + Not Applicable
08/31/2026 03 PM PDT 5.39 1080 - Not Applicable
08/31/2026 04 PM PDT 5.39 1080 0 Not Applicable
08/31/2026 05 PM PDT 5.30 1032 - Not Applicable
08/31/2026 06 PM PDT 5.30 1032 0 Not Applicable
08/31/2026 07 PM PDT 5.30 1032 0 Not Applicable
08/31/2026 08 PM PDT 5.30 1032 0 Not Applicable
08/31/2026 09 PM PDT 5.29 1027 - Not Applicable
08/31/2026 10 PM PDT 5.29 1027 0 Not Applicable
08/31/2026 11 PM PDT 5.29 1027 0 Not Applicable
09/01/2026 12 AM PDT 5.27 1016 - Not Applicable
09/01/2026 01 AM PDT 5.25 1006 - Not Applicable
09/01/2026 02 AM PDT 5.25 1006 0 Not Applicable
09/01/2026 03 AM PDT 5.25 1006 0 Not Applicable
09/01/2026 04 AM PDT 5.26 1011 + Not Applicable
09/01/2026 05 AM PDT 5.27 1016 + Not Applicable
09/01/2026 06 AM PDT 5.26 1011 - Not Applicable
09/01/2026 07 AM PDT 5.24 1001 - Not Applicable
09/01/2026 08 AM PDT 5.25 1006 + Not Applicable
09/01/2026 09 AM PDT 5.27 1016 + Not Applicable
09/01/2026 10 AM PDT 5.29 1027 + Not Applicable
09/01/2026 11 AM PDT 5.29 1027 0 Not Applicable
09/01/2026 12 PM PDT 5.27 1016 - Not Applicable
09/01/2026 01 PM PDT 5.24 1001 - Not Applicable
09/01/2026 02 PM PDT 5.22 990 - Not Applicable
09/01/2026 03 PM PDT 5.11 934 - Not Applicable
09/01/2026 04 PM PDT 5.11 934 0 Not Applicable
09/01/2026 05 PM PDT 4.98 870 - Not Applicable
09/01/2026 06 PM PDT 4.99 875 + Not Applicable
09/01/2026 07 PM PDT 4.99 875 0 Not Applicable
09/01/2026 08 PM PDT 4.99 875 0 Not Applicable
09/01/2026 09 PM PDT 4.99 875 0 Not Applicable
09/01/2026 10 PM PDT 4.98 870 - Not Applicable
09/01/2026 11 PM PDT 4.99 875 + Not Applicable
09/02/2026 12 AM PDT 4.98 870 - Not Applicable
09/02/2026 01 AM PDT 4.99 875 + Not Applicable
09/02/2026 02 AM PDT 4.97 865 - Not Applicable
09/02/2026 03 AM PDT 4.99 875 + Not Applicable
09/02/2026 04 AM PDT 4.99 875 0 Not Applicable
09/02/2026 05 AM PDT 4.98 870 - Not Applicable
09/02/2026 06 AM PDT 4.99 875 + Not Applicable
09/02/2026 07 AM PDT 4.99 875 0 Not Applicable
09/02/2026 08 AM PDT 4.98 870 - Not Applicable
09/02/2026 09 AM PDT 4.98 870 0 Not Applicable
09/02/2026 10 AM PDT 4.97 865 - Not Applicable
09/02/2026 11 AM PDT 4.97 865 0 Not Applicable
09/02/2026 12 PM PDT 4.99 875 + Not Applicable
09/02/2026 01 PM PDT 4.89 826 - Not Applicable
09/02/2026 02 PM PDT 4.88 822 - Not Applicable
09/02/2026 03 PM PDT 4.79 779 - Not Applicable
09/02/2026 04 PM PDT 4.79 779 0 Not Applicable
09/02/2026 05 PM PDT 4.69 733 - Not Applicable
09/02/2026 06 PM PDT 4.70 738 + Not Applicable
09/02/2026 07 PM PDT 4.68 729 - Not Applicable
09/02/2026 08 PM PDT 4.69 733 + Not Applicable
09/02/2026 09 PM PDT 4.69 733 0 Not Applicable
09/02/2026 10 PM PDT 4.69 733 0 Not Applicable
09/02/2026 11 PM PDT 4.69 733 0 Not Applicable
09/03/2026 12 AM PDT 4.69 733 0 Not Applicable
09/03/2026 01 AM PDT 4.69 733 0 Not Applicable
09/03/2026 02 AM PDT 4.69 733 0 Not Applicable
09/03/2026 03 AM PDT 4.69 733 0 Not Applicable
09/03/2026 04 AM PDT 4.68 729 - Not Applicable
09/03/2026 05 AM PDT 4.68 729 0 Not Applicable
09/03/2026 06 AM PDT 4.69 733 + Not Applicable
09/03/2026 07 AM PDT 4.69 733 0 Not Applicable
09/03/2026 08 AM PDT 4.69 733 0 Not Applicable
09/03/2026 09 AM PDT 4.70 738 + Not Applicable
09/03/2026 10 AM PDT 4.70 738 0 Not Applicable
09/03/2026 11 AM PDT 4.69 733 - Not Applicable
09/03/2026 12 PM PDT 4.70 738 + Not Applicable
09/03/2026 01 PM PDT 4.69 733 - Not Applicable
09/03/2026 02 PM PDT 4.69 733 0 Not Applicable
09/03/2026 03 PM PDT 4.69 733 0 Not Applicable
09/03/2026 04 PM PDT 4.68 729 - Not Applicable
09/03/2026 05 PM PDT 4.69 733 + Not Applicable
09/03/2026 06 PM PDT 4.69 733 0 Not Applicable
09/03/2026 07 PM PDT 4.68 729 - Not Applicable
09/03/2026 08 PM PDT 4.69 733 + Not Applicable
09/03/2026 09 PM PDT 4.68 729 - Not Applicable
09/03/2026 10 PM PDT 4.69 733 + Not Applicable
09/03/2026 11 PM PDT 4.69 733 0 Not Applicable
09/04/2026 12 AM PDT 4.68 729 - Not Applicable
09/04/2026 01 AM PDT 4.69 733 + Not Applicable
09/04/2026 02 AM PDT 4.68 729 - Not Applicable
09/04/2026 03 AM PDT 4.69 733 + Not Applicable
09/04/2026 04 AM PDT 4.68 729 - Not Applicable
09/04/2026 05 AM PDT 4.69 733 + Not Applicable
09/04/2026 06 AM PDT 4.67 724 - Not Applicable
09/04/2026 07 AM PDT 4.65 715 - Not Applicable
#
# FORECAST
#
# Date & Time (Local) Stage (Feet) Flow (cfs) Trend Forecast Status
# ---------------------------------------------------------------------------------
09/04/2026 08 AM PDT 4.64 711 Not Applicable
09/04/2026 09 AM PDT 4.63 707 - Not Applicable
09/04/2026 10 AM PDT 4.62 702 - Not Applicable
09/04/2026 11 AM PDT 4.61 698 - Not Applicable
09/04/2026 12 PM PDT 4.60 693 - Not Applicable
09/04/2026 01 PM PDT 4.59 689 - Not Applicable
09/04/2026 02 PM PDT 4.59 689 0 Not Applicable
09/04/2026 03 PM PDT 4.58 685 - Not Applicable
09/04/2026 04 PM PDT 4.58 685 0 Not Applicable
09/04/2026 05 PM PDT 4.57 680 - Not Applicable
09/04/2026 06 PM PDT 4.57 680 0 Not Applicable
09/04/2026 07 PM PDT 4.58 685 + Not Applicable
09/04/2026 08 PM PDT 4.59 689 + Not Applicable
09/04/2026 09 PM PDT 4.60 693 + Not Applicable
09/04/2026 10 PM PDT 4.61 698 + Not Applicable
09/04/2026 11 PM PDT 4.62 702 + Not Applicable
09/05/2026 12 AM PDT 4.63 707 + Not Applicable
09/05/2026 01 AM PDT 4.63 707 0 Not Applicable
09/05/2026 02 AM PDT 4.63 707 0 Not Applicable
09/05/2026 03 AM PDT 4.63 707 0 Not Applicable
09/05/2026 04 AM PDT 4.63 707 0 Not Applicable
09/05/2026 05 AM PDT 4.63 707 0 Not Applicable
09/05/2026 06 AM PDT 4.63 707 0 Not Applicable
09/05/2026 07 AM PDT 4.62 702 - Not Applicable
09/05/2026 08 AM PDT 4.62 702 0 Not Applicable
09/05/2026 09 AM PDT 4.62 702 0 Not Applicable
09/05/2026 10 AM PDT 4.61 698 - Not Applicable
09/05/2026 11 AM PDT 4.61 698 0 Not Applicable
09/05/2026 12 PM PDT 4.61 698 0 Not Applicable
09/05/2026 01 PM PDT 4.60 693 - Not Applicable
09/05/2026 02 PM PDT 4.60 693 0 Not Applicable
09/05/2026 03 PM PDT 4.60 693 0 Not Applicable
09/05/2026 04 PM PDT 4.60 693 0 Not Applicable
09/05/2026 05 PM PDT 4.60 693 0 Not Applicable
09/05/2026 06 PM PDT 4.60 693 0 Not Applicable
09/05/2026 07 PM PDT 4.60 693 0 Not Applicable
09/05/2026 08 PM PDT 4.61 698 + Not Applicable
09/05/2026 09 PM PDT 4.61 698 0 Not Applicable
09/05/2026 10 PM PDT 4.62 702 + Not Applicable
09/05/2026 11 PM PDT 4.62 702 0 Not Applicable
09/06/2026 12 AM PDT 4.62 702 0 Not Applicable
09/06/2026 01 AM PDT 4.62 702 0 Not Applicable
09/06/2026 02 AM PDT 4.62 702 0 Not Applicable
09/06/2026 03 AM PDT 4.62 702 0 Not Applicable
09/06/2026 04 AM PDT 4.62 702 0 Not Applicable
09/06/2026 05 AM PDT 4.62 702 0 Not Applicable
09/06/2026 06 AM PDT 4.62 702 0 Not Applicable
09/06/2026 07 AM PDT 4.62 702 0 Not Applicable
09/06/2026 08 AM PDT 4.62 702 0 Not Applicable
09/06/2026 09 AM PDT 4.62 702 0 Not Applicable
09/06/2026 10 AM PDT 4.63 707 + Not Applicable
09/06/2026 11 AM PDT 4.63 707 0 Not Applicable
09/06/2026 12 PM PDT 4.64 711 + Not Applicable
09/06/2026 01 PM PDT 4.64 711 0 Not Applicable
09/06/2026 02 PM PDT 4.65 715 + Not Applicable
09/06/2026 03 PM PDT 4.65 715 0 Not Applicable
09/06/2026 04 PM PDT 4.66 720 + Not Applicable
09/06/2026 05 PM PDT 4.67 724 + Not Applicable
09/06/2026 06 PM PDT 4.68 729 + Not Applicable
09/06/2026 07 PM PDT 4.69 733 + Not Applicable
09/06/2026 08 PM PDT 4.70 738 + Not Applicable
09/06/2026 09 PM PDT 4.71 742 + Not Applicable
09/06/2026 10 PM PDT 4.72 747 + Not Applicable
09/06/2026 11 PM PDT 4.73 752 + Not Applicable
09/07/2026 12 AM PDT 4.73 752 0 Not Applicable
09/07/2026 01 AM PDT 4.73 752 0 Not Applicable
09/07/2026 02 AM PDT 4.73 752 0 Not Applicable
09/07/2026 03 AM PDT 4.72 747 - Not Applicable
09/07/2026 04 AM PDT 4.72 747 0 Not Applicable
09/07/2026 05 AM PDT 4.71 742 - Not Applicable
09/07/2026 06 AM PDT 4.71 742 0 Not Applicable
09/07/2026 07 AM PDT 4.70 738 - Not Applicable
09/07/2026 08 AM PDT 4.69 733 - Not Applicable
09/07/2026 09 AM PDT 4.69 733 0 Not Applicable
09/07/2026 10 AM PDT 4.68 729 - Not Applicable
09/07/2026 11 AM PDT 4.67 724 - Not Applicable
09/07/2026 12 PM PDT 4.67 724 0 Not Applicable
09/07/2026 01 PM PDT 4.66 720 - Not Applicable
09/07/2026 02 PM PDT 4.66 720 0 Not Applicable
09/07/2026 03 PM PDT 4.66 720 0 Not Applicable
09/07/2026 04 PM PDT 4.66 720 0 Not Applicable
09/07/2026 05 PM PDT 4.66 720 0 Not Applicable
09/07/2026 06 PM PDT 4.66 720 0 Not Applicable
09/07/2026 07 PM PDT 4.66 720 0 Not Applicable
09/07/2026 08 PM PDT 4.67 724 + Not Applicable
09/07/2026 09 PM PDT 4.67 724 0 Not Applicable
09/07/2026 10 PM PDT 4.67 724 0 Not Applicable
09/07/2026 11 PM PDT 4.67 724 0 Not Applicable
09/08/2026 12 AM PDT 4.67 724 0 Not Applicable
09/08/2026 01 AM PDT 4.67 724 0 Not Applicable
09/08/2026 02 AM PDT 4.67 724 0 Not Applicable
09/08/2026 03 AM PDT 4.67 724 0 Not Applicable
09/08/2026 04 AM PDT 4.67 724 0 Not Applicable
09/08/2026 05 AM PDT 4.67 724 0 Not Applicable
09/08/2026 06 AM PDT 4.67 724 0 Not Applicable
09/08/2026 07 AM PDT 4.67 724 0 Not Applicable
09/08/2026 08 AM PDT 4.67 724 0 Not Applicable
09/08/2026 09 AM PDT 4.67 724 0 Not Applicable
09/08/2026 10 AM PDT 4.67 724 0 Not Applicable
09/08/2026 11 AM PDT 4.67 724 0 Not Applicable
09/08/2026 12 PM PDT 4.67 724 0 Not Applicable
09/08/2026 01 PM PDT 4.67 724 0 Not Applicable
09/08/2026 02 PM PDT 4.67 724 0 Not Applicable
09/08/2026 03 PM PDT 4.67 724 0 Not Applicable
09/08/2026 04 PM PDT 4.67 724 0 Not Applicable
09/08/2026 05 PM PDT 4.67 724 0 Not Applicable
09/08/2026 06 PM PDT 4.67 724 0 Not Applicable
09/08/2026 07 PM PDT 4.68 729 + Not Applicable
09/08/2026 08 PM PDT 4.68 729 0 Not Applicable
09/08/2026 09 PM PDT 4.69 733 + Not Applicable
09/08/2026 10 PM PDT 4.69 733 0 Not Applicable
09/08/2026 11 PM PDT 4.69 733 0 Not Applicable
09/09/2026 12 AM PDT 4.69 733 0 Not Applicable
09/09/2026 01 AM PDT 4.69 733 0 Not Applicable
09/09/2026 02 AM PDT 4.69 733 0 Not Applicable
09/09/2026 03 AM PDT 4.69 733 0 Not Applicable
09/09/2026 04 AM PDT 4.69 733 0 Not Applicable
09/09/2026 05 AM PDT 4.69 733 0 Not Applicable
#
# NOTE 1: Stages are rounded to the nearest hundredth (.01) of a foot.
# NOTE 2: Flows are rounded to the nearest (1) cfs.
# NOTE 3: Trends are determined using hourly change in unrounded stage and flow.
# NOTE 4: Maximum Values are determined using unrounded stage and flow.
|